Weather at Davison Restricted Landing Area

Public forecast

Using degrees Fahrenheit for public forecast. Weather courtesy of forecast.io.

Closest aviation weather report (METAR) to Davison Restricted Landing Area

Closest report is Marshall County Airport, 13.3 nm (24.6 km) WNW. Retrieved 2021/01/22 01:35 UTC (0 seconds ago):

KC75 220135Z AUTO 29009KT 10SM BKN042 01/M04 A2990 RMK AO2 T00101040

Closest aviation forecast (TAF) to Davison Restricted Landing Area

Closest forecast is Central Illinois Regional Airport at Bloomington-Normal, 28.0 nm (51.9 km) SSE. Retrieved 2021-01-22 00:39 UTC (52 minutes ago):

TAF KBMI 212335Z 2200/2224 27014G24KT P6SM SKC FM220200 30014G20KT P6SM FEW020 SCT250 FM220700 32010G20KT P6SM BKN025 FM221000 33013KT P6SM FEW025 BKN180